Time;durP1;ratioP1;P1;durP2;ratioP2;P2;SDS_P1;SDS_P2;PMS_P1;PMS_P2;Temp;Humidity;BMP_temperature;BMP_pressure;BME280_temperature;BME280_humidity;BME280_pressure;Samples;Min_cycle;Max_cycle;Signal;HPM_P1;HPM_P2
2024/01/12 00:02:23;;;;;;;65.32;25.70;;;;;;;3.21;77.84;101489.69;4935950;29;20048;-75
2024/01/12 00:04:50;;;;;;;56.58;25.02;;;;;;;3.21;78.02;101497.50;4953452;29;20057;-75
2024/01/12 00:07:16;;;;;;;72.53;25.08;;;;;;;3.21;78.02;101499.25;4953189;29;20111;-78
2024/01/12 00:09:43;;;;;;;62.08;24.27;;;;;;;3.20;78.11;101490.56;4936390;29;20052;-75
2024/01/12 00:12:10;;;;;;;70.30;25.50;;;;;;;3.19;77.82;101483.63;4952982;29;20138;-77
2024/01/12 00:14:36;;;;;;;63.05;23.85;;;;;;;3.19;78.07;101477.53;4953175;29;20126;-78
2024/01/12 00:17:03;;;;;;;98.50;24.67;;;;;;;3.19;77.70;101481.03;4953243;28;20047;-79
2024/01/12 00:19:29;;;;;;;71.30;23.67;;;;;;;3.18;77.91;101478.41;4936101;29;20087;-77
2024/01/12 00:21:56;;;;;;;55.45;22.67;;;;;;;3.17;77.96;101469.72;4935723;29;20135;-75
2024/01/12 00:24:22;;;;;;;58.40;23.35;;;;;;;3.16;77.86;101470.59;4936054;29;20563;-75
2024/01/12 00:26:49;;;;;;;57.83;23.77;;;;;;;3.18;78.24;101487.06;4953098;29;20058;-75
2024/01/12 00:29:16;;;;;;;81.22;23.45;;;;;;;3.17;78.37;101489.69;4952855;29;20051;-75
2024/01/12 00:31:43;;;;;;;71.68;25.08;;;;;;;3.17;78.05;101490.53;4952672;29;20499;-75
2024/01/12 00:34:10;;;;;;;65.38;24.70;;;;;;;3.16;78.09;101481.00;4952716;29;20062;-79
2024/01/12 00:36:36;;;;;;;59.70;22.45;;;;;;;3.17;78.21;101484.50;4953006;29;20115;-75
2024/01/12 00:39:03;;;;;;;55.63;23.65;;;;;;;3.17;78.19;101482.75;4935771;29;20141;-76
2024/01/12 00:41:30;;;;;;;53.97;23.45;;;;;;;3.17;78.43;101487.94;4935773;29;20067;-78
2024/01/12 00:43:57;;;;;;;61.33;23.55;;;;;;;3.19;78.27;101493.16;4952952;29;20061;-75
2024/01/12 00:46:24;;;;;;;55.10;22.60;;;;;;;3.20;78.49;101497.50;4952713;29;20062;-75
2024/01/12 00:48:50;;;;;;;54.83;22.10;;;;;;;3.21;78.19;101484.47;4935492;29;20047;-76
2024/01/12 00:51:17;;;;;;;65.00;24.13;;;;;;;3.23;78.36;101481.88;4952333;29;20061;-75
2024/01/12 00:53:44;;;;;;;55.28;23.35;;;;;;;3.24;78.06;101481.91;4935633;29;20133;-75
2024/01/12 00:56:11;;;;;;;65.85;24.83;;;;;;;3.25;78.32;101483.63;4952761;29;20508;-75
2024/01/12 00:58:37;;;;;;;58.33;23.55;;;;;;;3.25;77.98;101481.03;4952596;29;20051;-79
2024/01/12 01:01:04;;;;;;;66.88;25.20;;;;;;;3.28;78.44;101484.50;4952287;29;20055;-75
2024/01/12 01:03:31;;;;;;;56.53;21.70;;;;;;;3.28;78.03;101484.50;4952348;29;20162;-75
2024/01/12 01:05:57;;;;;;;64.63;23.83;;;;;;;3.29;78.26;101491.44;4952767;29;20130;-76
2024/01/12 01:08:24;;;;;;;57.20;23.20;;;;;;;3.29;77.86;101486.25;4952574;29;20083;-77
2024/01/12 01:10:50;;;;;;;52.28;21.60;;;;;;;3.30;78.11;101480.16;4952549;28;20121;-77
2024/01/12 01:13:17;;;;;;;53.20;23.10;;;;;;;3.30;77.88;101483.66;4955450;29;20111;-76
2024/01/12 01:15:43;;;;;;;59.78;23.40;;;;;;;3.31;78.25;101482.78;4956322;29;20453;-75
2024/01/12 01:18:10;;;;;;;55.95;23.05;;;;;;;3.31;78.35;101485.38;4956344;29;20098;-77
2024/01/12 01:20:38;;;;;;;53.88;21.50;;;;;;;3.33;77.95;101493.19;4956458;28;20062;-76
2024/01/12 01:23:05;;;;;;;56.28;22.58;;;;;;;3.33;78.07;101495.78;4939351;29;20059;-75
2024/01/12 01:25:32;;;;;;;57.45;23.83;;;;;;;3.34;78.30;101494.91;4939325;29;20047;-75
2024/01/12 01:28:00;;;;;;;57.53;21.83;;;;;;;3.34;78.01;101502.72;4956253;29;20054;-75
2024/01/12 01:30:26;;;;;;;44.95;20.02;;;;;;;3.35;78.06;101501.84;4938887;29;20102;-75
2024/01/12 01:32:53;;;;;;;49.72;22.83;;;;;;;3.35;78.42;101505.34;4956040;29;20047;-76
2024/01/12 01:35:20;;;;;;;51.28;21.30;;;;;;;3.36;78.27;101508.78;4956309;29;20134;-78
2024/01/12 01:37:46;;;;;;;49.35;20.75;;;;;;;3.38;78.25;101499.25;4938926;29;20102;-78
2024/01/12 01:40:13;;;;;;;46.85;21.15;;;;;;;3.39;78.29;101506.19;4956112;29;20147;-75
2024/01/12 01:42:40;;;;;;;50.40;19.75;;;;;;;3.39;78.36;101499.28;4955939;29;20448;-76
2024/01/12 01:45:06;;;;;;;49.05;21.33;;;;;;;3.41;78.49;101501.88;4955821;29;20102;-74
2024/01/12 01:47:34;;;;;;;49.13;20.50;;;;;;;3.42;78.44;101494.91;4955981;29;20055;-77
2024/01/12 01:50:00;;;;;;;48.80;20.92;;;;;;;3.44;78.47;101501.00;4955881;29;20472;-78
2024/01/12 01:52:27;;;;;;;39.67;19.27;;;;;;;3.46;78.24;101504.47;4955442;29;20082;-76
2024/01/12 01:54:56;;;;;;;45.75;19.80;;;;;;;3.46;78.33;101505.34;4938820;29;20125;-76
2024/01/12 01:57:26;;;;;;;47.65;20.65;;;;;;;3.48;78.17;101507.97;4955706;29;20879;-77
2024/01/12 01:59:54;;;;;;;52.20;21.58;;;;;;;3.49;78.08;101504.47;4955634;29;20559;-76
2024/01/12 02:02:21;;;;;;;51.40;22.58;;;;;;;3.50;78.40;101512.28;4955374;29;20492;-82
2024/01/12 02:04:51;;;;;;;44.60;19.80;;;;;;;3.50;78.02;101514.91;4955774;29;20146;-75
2024/01/12 02:07:18;;;;;;;45.70;20.20;;;;;;;3.52;78.15;101518.34;4955663;29;20579;-75
2024/01/12 02:09:45;;;;;;;48.97;20.50;;;;;;;3.52;78.37;101507.94;4955582;29;20051;-77
2024/01/12 02:12:11;;;;;;;43.15;21.42;;;;;;;3.53;77.86;101506.22;4955236;28;20069;-75
2024/01/12 02:14:38;;;;;;;47.42;20.65;;;;;;;3.54;78.11;101504.50;4955440;29;20146;-78
2024/01/12 02:17:04;;;;;;;45.40;20.50;;;;;;;3.54;78.08;101507.94;4955380;29;20093;-79
2024/01/12 02:19:31;;;;;;;49.25;21.55;;;;;;;3.55;78.03;101512.28;4955477;29;20062;-76
2024/01/12 02:21:57;;;;;;;52.65;21.27;;;;;;;3.55;77.92;101511.44;4955136;29;20073;-76
2024/01/12 02:24:24;;;;;;;54.30;21.63;;;;;;;3.56;77.88;101505.34;4955077;28;20086;-75
2024/01/12 02:26:50;;;;;;;54.92;22.73;;;;;;;3.56;78.00;101506.22;4955170;29;20055;-75
2024/01/12 02:29:17;;;;;;;51.20;21.45;;;;;;;3.55;77.89;101507.06;4938088;29;20051;-76
2024/01/12 02:31:45;;;;;;;44.75;19.92;;;;;;;3.56;78.01;101508.84;4955061;29;20158;-75
2024/01/12 02:34:13;;;;;;;45.40;19.63;;;;;;;3.56;77.95;101501.03;4938051;29;20145;-75
2024/01/12 02:36:40;;;;;;;43.67;20.40;;;;;;;3.56;77.91;101500.16;4955156;29;20102;-76
2024/01/12 02:39:06;;;;;;;36.50;17.00;;;;;;;3.56;78.41;101493.22;4937997;29;20141;-76
2024/01/12 02:41:33;;;;;;;40.88;17.35;;;;;;;3.57;77.91;101496.66;4954746;29;20055;-76
2024/01/12 02:44:00;;;;;;;39.80;17.73;;;;;;;3.57;78.30;101507.97;4954802;29;20055;-78
2024/01/12 02:46:26;;;;;;;39.67;17.98;;;;;;;3.58;78.26;101508.81;4954920;29;20052;-76
2024/01/12 02:48:53;;;;;;;42.95;17.90;;;;;;;3.59;78.15;101492.34;4954807;29;20047;-76
2024/01/12 02:51:20;;;;;;;41.10;17.70;;;;;;;3.58;78.24;101504.47;4954446;29;20047;-78
2024/01/12 02:53:46;;;;;;;38.10;18.90;;;;;;;3.59;78.03;101497.56;4954548;29;20055;-76
2024/01/12 02:56:13;;;;;;;44.10;18.23;;;;;;;3.59;78.27;101500.16;4937746;29;20143;-75
2024/01/12 02:58:40;;;;;;;39.78;17.33;;;;;;;3.59;77.91;101494.94;4954615;29;20559;-80
2024/01/12 03:01:07;;;;;;;44.33;19.92;;;;;;;3.59;78.01;101497.56;4937371;29;20059;-78
2024/01/12 03:03:33;;;;;;;41.70;18.42;;;;;;;3.59;78.27;101493.19;4954464;29;20138;-79
2024/01/12 03:06:02;;;;;;;42.83;18.88;;;;;;;3.57;78.03;101489.72;4937407;29;20058;-75
2024/01/12 03:08:29;;;;;;;41.00;18.38;;;;;;;3.59;77.92;101492.34;4954331;29;20501;-80
2024/01/12 03:13:33;;;;;;;36.40;16.80;;;;;;;3.60;78.33;101486.25;4980333;23;20046;-77
2024/01/12 03:15:59;;;;;;;41.85;17.30;;;;;;;3.60;78.29;101483.66;4973749;28;20058;-78
2024/01/12 03:18:27;;;;;;;36.13;16.80;;;;;;;3.60;78.16;101488.88;4973470;28;20047;-78
2024/01/12 03:20:54;;;;;;;33.97;15.23;;;;;;;3.60;78.02;101487.13;4973128;28;20051;-77
2024/01/12 03:23:20;;;;;;;33.83;16.05;;;;;;;3.61;78.33;101488.00;4973586;28;20086;-75
2024/01/12 03:25:47;;;;;;;42.33;15.73;;;;;;;3.60;78.56;101489.75;4973620;28;20059;-76
2024/01/12 03:28:14;;;;;;;30.25;14.32;;;;;;;3.61;78.21;101482.78;4973363;28;20129;-76
2024/01/12 03:30:40;;;;;;;31.67;14.20;;;;;;;3.62;78.08;101474.09;4973034;28;20137;-78
2024/01/12 03:33:08;;;;;;;32.45;12.65;;;;;;;3.60;78.18;101476.72;4973331;28;20050;-76
2024/01/12 03:35:35;;;;;;;34.80;14.00;;;;;;;3.61;78.47;101477.56;4972246;28;20106;-75
2024/01/12 03:38:02;;;;;;;28.13;13.77;;;;;;;3.61;78.42;101472.38;4973158;28;20047;-75
2024/01/12 03:40:28;;;;;;;32.33;13.82;;;;;;;3.61;78.67;101474.97;4972964;28;20109;-75
2024/01/12 03:42:55;;;;;;;34.05;12.18;;;;;;;3.62;78.51;101474.09;4972661;28;20057;-79
2024/01/12 03:45:21;;;;;;;30.65;12.65;;;;;;;3.62;78.29;101468.88;4972946;28;20519;-76
2024/01/12 03:47:48;;;;;;;34.45;12.88;;;;;;;3.62;78.30;101461.94;4972920;28;20057;-75
2024/01/12 03:50:15;;;;;;;31.40;13.07;;;;;;;3.63;78.22;101461.06;4973016;28;20130;-77
2024/01/12 03:52:41;;;;;;;32.03;13.80;;;;;;;3.64;78.42;101448.94;4955686;28;20149;-75
2024/01/12 03:55:08;;;;;;;34.15;13.45;;;;;;;3.64;78.62;101451.53;4973012;28;20133;-78
2024/01/12 03:57:34;;;;;;;28.88;13.05;;;;;;;3.65;78.30;101448.06;4972794;28;20050;-77
2024/01/12 04:00:01;;;;;;;30.40;13.77;;;;;;;3.67;78.18;101453.28;4972916;28;20078;-75
2024/01/12 04:02:27;;;;;;;32.08;12.80;;;;;;;3.66;78.57;101441.97;4972521;28;20055;-75
2024/01/12 04:04:54;;;;;;;28.48;12.07;;;;;;;3.65;78.31;101435.03;4955740;28;20057;-75
2024/01/12 04:07:20;;;;;;;25.17;11.40;;;;;;;3.68;78.17;101448.06;4955593;28;20119;-81
2024/01/12 04:09:47;;;;;;;31.00;11.90;;;;;;;3.67;78.26;101451.53;4972530;28;20149;-76
2024/01/12 04:12:14;;;;;;;38.13;12.20;;;;;;;3.67;78.41;101448.94;4955102;28;20142;-75
2024/01/12 04:14:46;;;;;;;24.17;11.52;;;;;;;3.64;77.80;101448.94;4972544;28;20054;-77
2024/01/12 04:17:13;;;;;;;26.80;11.82;;;;;;;3.65;78.53;101448.94;4955225;28;20089;-80
2024/01/12 04:19:40;;;;;;;30.48;10.68;;;;;;;3.65;78.30;101451.53;4972446;28;20058;-78
2024/01/12 04:22:06;;;;;;;19.67;9.82;;;;;;;3.65;78.51;101448.06;4972340;28;20051;-76
2024/01/12 04:24:34;;;;;;;28.25;10.63;;;;;;;3.65;78.30;101450.66;4972337;28;20106;-75
2024/01/12 04:27:00;;;;;;;29.80;11.00;;;;;;;3.66;78.76;101455.00;4972354;28;20094;-76
2024/01/12 04:29:27;;;;;;;24.08;10.20;;;;;;;3.65;78.75;101454.16;4955053;28;20074;-75
2024/01/12 04:31:54;;;;;;;31.10;11.23;;;;;;;3.65;78.42;101441.13;4954756;28;20063;-75
2024/01/12 04:34:20;;;;;;;31.45;11.02;;;;;;;3.65;78.60;101451.53;4972295;28;20047;-78
2024/01/12 04:36:47;;;;;;;25.17;10.38;;;;;;;3.66;78.90;101444.56;4972329;28;20133;-75
2024/01/12 04:39:13;;;;;;;26.30;10.45;;;;;;;3.68;78.49;101441.97;5140496;23;20062;-75
2024/01/12 04:41:40;;;;;;;23.33;9.75;;;;;;;3.68;78.46;101444.56;4972516;28;20055;-75
2024/01/12 04:44:06;;;;;;;28.52;11.40;;;;;;;3.68;78.67;101445.47;4972213;28;20057;-75
2024/01/12 04:46:33;;;;;;;22.30;11.13;;;;;;;3.69;78.83;101439.38;4972059;28;20055;-80
2024/01/12 04:48:59;;;;;;;30.83;12.32;;;;;;;3.70;78.60;101441.09;4971917;28;20492;-76
2024/01/12 04:51:26;;;;;;;21.98;11.05;;;;;;;3.72;78.60;101431.56;4972653;28;20054;-75
2024/01/12 04:53:52;;;;;;;26.27;10.98;;;;;;;3.72;78.68;101431.56;4973182;28;20113;-75
2024/01/12 04:56:19;;;;;;;26.60;10.45;;;;;;;3.72;78.86;101441.97;4972943;28;20595;-77
2024/01/12 04:58:45;;;;;;;26.15;10.57;;;;;;;3.74;78.69;101447.19;4973257;28;20098;-75
2024/01/12 05:01:12;;;;;;;22.85;10.15;;;;;;;3.74;78.75;101440.22;4971967;28;20053;-79
2024/01/12 05:03:41;;;;;;;34.78;14.07;;;;;;;3.73;78.55;101441.09;4971898;28;20051;-78
2024/01/12 05:06:09;;;;;;;33.60;13.90;;;;;;;3.76;78.62;101443.72;4971677;28;20058;-80
2024/01/12 05:08:37;;;;;;;30.88;13.43;;;;;;;3.75;78.91;101434.19;4971789;28;20050;-76
2024/01/12 05:11:03;;;;;;;38.72;13.75;;;;;;;3.77;78.70;101431.53;4971521;28;20078;-76
2024/01/12 05:13:30;;;;;;;35.10;13.43;;;;;;;3.77;78.59;101432.41;4954360;28;20137;-75
2024/01/12 05:15:56;;;;;;;29.63;11.57;;;;;;;3.77;78.14;101444.56;4971950;28;20138;-79
2024/01/12 05:18:23;;;;;;;27.83;10.75;;;;;;;3.76;78.59;101438.50;4971819;28;20105;-76
2024/01/12 05:20:49;;;;;;;27.08;11.65;;;;;;;3.77;78.57;101448.03;4971599;28;20098;-77
2024/01/12 05:23:16;;;;;;;27.77;11.77;;;;;;;3.76;78.35;101446.31;4971597;28;20054;-75
2024/01/12 05:25:43;;;;;;;22.92;11.43;;;;;;;3.76;78.14;101442.84;4971498;28;20050;-79
2024/01/12 05:28:09;;;;;;;29.35;10.20;;;;;;;3.76;78.26;101440.22;4971466;28;20051;-77
2024/01/12 05:30:36;;;;;;;27.70;10.73;;;;;;;3.75;78.56;101444.59;4971886;28;20058;-76
2024/01/12 05:33:03;;;;;;;31.27;10.60;;;;;;;3.75;78.62;101446.31;4971592;28;20051;-75
2024/01/12 05:35:29;;;;;;;21.23;10.38;;;;;;;3.75;78.73;101449.81;4971727;28;20054;-79
2024/01/12 05:37:56;;;;;;;26.67;10.57;;;;;;;3.76;78.39;101446.31;4971426;28;20110;-77
2024/01/12 05:40:22;;;;;;;25.63;10.48;;;;;;;3.77;78.49;101435.03;4971381;28;20491;-75
2024/01/12 05:42:49;;;;;;;29.70;11.07;;;;;;;3.78;78.68;101425.47;4971284;28;20414;-76
2024/01/12 05:45:15;;;;;;;29.80;11.15;;;;;;;3.79;78.35;101422.00;4971500;28;20050;-77
2024/01/12 05:47:42;;;;;;;33.72;11.15;;;;;;;3.77;78.28;101411.59;4954277;28;20053;-76
2024/01/12 05:50:09;;;;;;;24.75;10.38;;;;;;;3.77;78.54;101403.75;4971436;28;20047;-77
2024/01/12 05:52:35;;;;;;;26.33;11.32;;;;;;;3.77;78.58;101424.59;4971235;28;20047;-77
2024/01/12 05:55:02;;;;;;;31.95;12.25;;;;;;;3.75;78.49;101418.53;4971284;28;20137;-78
2024/01/12 05:57:29;;;;;;;28.20;11.75;;;;;;;3.76;78.56;101414.19;4971080;28;20054;-75
2024/01/12 05:59:56;;;;;;;28.25;11.68;;;;;;;3.75;78.55;101413.34;4974991;28;20134;-77
2024/01/12 06:02:23;;;;;;;29.73;12.43;;;;;;;3.76;78.50;101406.38;4957516;28;20555;-75
2024/01/12 06:04:49;;;;;;;30.73;12.25;;;;;;;3.75;78.34;101413.34;4974923;28;20085;-77
2024/01/12 06:07:17;;;;;;;26.25;11.70;;;;;;;3.75;78.21;101410.72;4957610;28;20051;-73
2024/01/12 06:09:43;;;;;;;28.58;12.10;;;;;;;3.74;78.65;101401.16;4975080;28;20050;-73
2024/01/12 06:12:11;;;;;;;26.85;12.32;;;;;;;3.74;78.55;101401.16;4975455;28;20460;-73
2024/01/12 06:14:39;;;;;;;23.58;12.38;;;;;;;3.73;78.50;101408.97;4974996;28;20050;-73
2024/01/12 06:17:05;;;;;;;30.42;13.43;;;;;;;3.72;78.56;101408.13;5036123;23;20161;-77
2024/01/12 06:19:32;;;;;;;24.70;11.93;;;;;;;3.73;78.50;101417.66;4975119;28;20110;-77
2024/01/12 06:21:58;;;;;;;26.92;13.23;;;;;;;3.73;78.56;101422.88;4957178;28;20138;-79
2024/01/12 06:24:25;;;;;;;28.77;13.80;;;;;;;3.72;78.68;101413.34;4974373;28;20055;-78
2024/01/12 06:26:51;;;;;;;28.92;13.60;;;;;;;3.72;78.37;101418.53;4974788;28;20129;-80
2024/01/12 06:29:18;;;;;;;33.30;15.43;;;;;;;3.72;78.86;101421.16;4974758;28;20065;-77
2024/01/12 06:31:44;;;;;;;36.70;15.82;;;;;;;3.73;78.78;101414.19;4974445;28;20058;-78
2024/01/12 06:34:11;;;;;;;36.42;16.65;;;;;;;3.73;78.73;101419.38;4974373;28;20464;-78
2024/01/12 06:36:44;;;;;;;33.08;14.93;;;;;;;3.71;77.84;101418.53;4957271;28;20110;-78
2024/01/12 06:39:10;;;;;;;38.05;17.08;;;;;;;3.73;78.74;101412.44;4974704;28;20163;-77
2024/01/12 06:41:46;;;;;;;35.88;17.98;;;;;;;3.69;78.01;101397.69;4974291;28;20399;-78
2024/01/12 06:44:13;;;;;;;38.38;18.13;;;;;;;3.71;78.36;101406.41;4974461;28;20469;-77
2024/01/12 06:46:43;;;;;;;37.47;18.23;;;;;;;3.69;78.26;101408.13;4974769;28;20066;-78
2024/01/12 06:49:11;;;;;;;39.15;19.15;;;;;;;3.69;78.43;101413.31;4974106;28;20046;-78
2024/01/12 06:51:38;;;;;;;37.30;18.48;;;;;;;3.68;78.42;101410.72;4973864;28;20707;-79
2024/01/12 06:54:04;;;;;;;40.08;20.30;;;;;;;3.67;78.55;101416.81;4974189;28;20472;-78
2024/01/12 06:56:32;;;;;;;38.08;20.30;;;;;;;3.66;78.70;101415.94;4974366;28;20130;-78
2024/01/12 06:58:59;;;;;;;42.15;21.00;;;;;;;3.66;78.67;101413.31;4974400;28;20145;-79
2024/01/12 07:01:25;;;;;;;41.70;21.73;;;;;;;3.65;78.49;101419.41;4974005;28;20109;-79
2024/01/12 07:03:52;;;;;;;49.13;21.13;;;;;;;3.66;78.57;101431.56;4973880;28;20065;-79
2024/01/12 07:06:19;;;;;;;34.13;19.08;;;;;;;3.64;78.33;101421.16;4956972;28;20051;-78
2024/01/12 07:08:46;;;;;;;36.50;18.88;;;;;;;3.63;78.45;101427.22;4973550;28;20062;-78
2024/01/12 07:11:12;;;;;;;35.75;18.58;;;;;;;3.62;78.43;101422.88;4972895;28;20053;-76
2024/01/12 07:13:39;;;;;;;41.58;20.58;;;;;;;3.61;78.55;101428.09;4973641;28;20114;-79
2024/01/12 07:16:05;;;;;;;35.35;18.90;;;;;;;3.61;78.80;101441.13;4973490;28;20055;-79
2024/01/12 07:18:32;;;;;;;39.15;19.33;;;;;;;3.61;78.41;101448.94;4974309;28;20055;-78
2024/01/12 07:21:03;;;;;;;37.60;19.85;;;;;;;3.60;78.79;101434.19;4973609;28;20047;-77
2024/01/12 07:23:30;;;;;;;39.83;19.05;;;;;;;3.59;78.41;101435.06;4973859;28;20130;-81
2024/01/12 07:25:58;;;;;;;34.53;19.52;;;;;;;3.57;78.34;101426.34;4956449;28;20054;-77
2024/01/12 07:28:25;;;;;;;31.70;19.15;;;;;;;3.56;78.60;101428.13;4973466;28;20552;-78
2024/01/12 07:30:54;;;;;;;37.28;19.02;;;;;;;3.54;78.37;101427.22;4973244;28;20460;-77
2024/01/12 07:33:21;;;;;;;31.77;18.00;;;;;;;3.54;78.60;101429.00;4973619;28;20134;-78
2024/01/12 07:35:48;;;;;;;35.28;18.30;;;;;;;3.53;78.71;101443.72;4973639;28;20105;-78
2024/01/12 07:38:15;;;;;;;34.67;18.42;;;;;;;3.51;78.45;101440.25;4956209;28;20134;-78
2024/01/12 07:40:42;;;;;;;31.67;18.10;;;;;;;3.49;78.83;101442.88;4972874;28;20086;-78
2024/01/12 07:43:09;;;;;;;33.50;18.17;;;;;;;3.47;78.56;101428.97;4955718;28;20104;-78
2024/01/12 07:45:35;;;;;;;33.20;16.83;;;;;;;3.48;78.58;101432.47;4972895;28;20051;-78
2024/01/12 07:48:02;;;;;;;42.30;16.45;;;;;;;3.46;78.91;101424.63;4973223;28;20114;-77
2024/01/12 07:50:29;;;;;;;29.05;15.88;;;;;;;3.45;78.52;101435.94;4972955;28;20157;-77
2024/01/12 07:52:56;;;;;;;28.35;14.65;;;;;;;3.45;78.87;101445.47;4973013;28;20057;-77
2024/01/12 07:55:22;;;;;;;31.60;14.13;;;;;;;3.45;78.97;101448.94;4973072;28;20055;-78
2024/01/12 07:57:49;;;;;;;28.70;14.38;;;;;;;3.43;79.01;101442.84;4972852;28;20055;-77
2024/01/12 08:00:16;;;;;;;35.55;14.98;;;;;;;3.43;78.65;101452.41;4955475;28;20152;-77
2024/01/12 08:02:42;;;;;;;27.95;13.85;;;;;;;3.43;79.03;101449.81;4972531;28;20133;-79
2024/01/12 08:05:09;;;;;;;29.63;14.85;;;;;;;3.41;78.96;101435.91;4972857;28;20558;-78
2024/01/12 08:07:37;;;;;;;20.27;12.43;;;;;;;3.40;78.78;101435.03;4955626;28;20125;-77
2024/01/12 08:10:04;;;;;;;22.88;12.65;;;;;;;3.38;78.67;101434.19;4949430;28;20043;-77
2024/01/12 08:12:31;;;;;;;26.52;12.63;;;;;;;3.37;78.80;101429.84;4962169;28;20058;-79
2024/01/12 08:14:57;;;;;;;24.20;12.55;;;;;;;3.35;78.66;101427.25;4946540;28;20059;-77
2024/01/12 08:17:24;;;;;;;25.38;12.77;;;;;;;3.36;79.05;101431.56;4953159;28;20043;-77
2024/01/12 08:19:50;;;;;;;23.58;12.00;;;;;;;3.36;79.16;101435.91;4953394;29;20051;-78
2024/01/12 08:22:17;;;;;;;24.50;12.73;;;;;;;3.36;79.35;101430.69;4952555;28;20091;-79
2024/01/12 08:24:44;;;;;;;20.15;12.77;;;;;;;3.38;79.23;101421.16;4958975;28;20086;-78
2024/01/12 08:27:10;;;;;;;20.88;12.38;;;;;;;3.38;79.66;101424.66;4962053;28;20567;-77
2024/01/12 08:29:37;;;;;;;25.67;13.57;;;;;;;3.41;79.63;101422.91;4963637;28;20051;-77
2024/01/12 08:32:04;;;;;;;22.95;12.77;;;;;;;3.43;79.04;101416.81;4944441;28;20047;-79
2024/01/12 08:34:31;;;;;;;25.15;14.15;;;;;;;3.45;79.42;101422.91;4962354;28;20078;-78
2024/01/12 08:36:58;;;;;;;24.08;13.27;;;;;;;3.47;79.70;101417.69;4962978;28;20055;-78
2024/01/12 08:39:26;;;;;;;30.05;14.18;;;;;;;3.48;79.56;101419.44;4955114;28;20055;-76
2024/01/12 08:41:53;;;;;;;25.42;15.23;;;;;;;3.51;79.44;101420.28;4952680;29;20047;-77
2024/01/12 08:44:19;;;;;;;28.17;14.90;;;;;;;3.53;79.65;101415.09;4952738;29;20055;-77
2024/01/12 08:46:46;;;;;;;23.38;13.38;;;;;;;3.56;79.44;101417.69;4952811;29;20085;-77
2024/01/12 08:49:12;;;;;;;26.08;15.75;;;;;;;3.58;79.29;101409.84;4952863;29;20055;-77
2024/01/12 08:51:39;;;;;;;33.55;16.42;;;;;;;3.59;79.43;101406.41;4955710;28;20043;-77
2024/01/12 08:54:06;;;;;;;26.90;15.95;;;;;;;3.59;79.25;101412.47;4959677;28;20085;-78
2024/01/12 08:56:32;;;;;;;31.33;16.70;;;;;;;3.60;79.25;101402.94;4952717;29;20412;-79
2024/01/12 08:58:59;;;;;;;48.55;17.08;;;;;;;3.60;79.09;101408.13;4952610;29;20047;-77
2024/01/12 09:01:25;;;;;;;26.77;15.70;;;;;;;3.58;78.63;101404.66;4952582;29;20141;-79
2024/01/12 09:03:52;;;;;;;26.98;14.18;;;;;;;3.57;78.77;101395.13;4952524;29;20079;-78
2024/01/12 09:06:23;;;;;;;22.95;13.73;;;;;;;3.55;78.78;101396.88;4952625;29;20114;-78
2024/01/12 09:08:51;;;;;;;26.30;14.45;;;;;;;3.52;79.12;101410.75;4952420;29;20047;-76
2024/01/12 09:11:17;;;;;;;24.05;14.40;;;;;;;3.49;79.31;101410.75;4952442;29;20638;-78
2024/01/12 09:13:44;;;;;;;50.08;17.35;;;;;;;3.48;79.37;101401.22;4952489;29;20099;-77
2024/01/12 09:16:11;;;;;;;38.83;17.92;;;;;;;3.48;79.59;101398.59;4952740;29;20063;-79
2024/01/12 09:18:37;;;;;;;32.85;15.50;;;;;;;3.46;79.76;101401.22;4952511;29;20051;-78
2024/01/12 09:21:04;;;;;;;38.72;18.10;;;;;;;3.47;79.95;101392.53;4935268;29;20457;-78
2024/01/12 09:23:31;;;;;;;45.00;19.08;;;;;;;3.49;80.16;101395.13;4935236;29;20051;-79
2024/01/12 09:25:58;;;;;;;45.88;19.25;;;;;;;3.49;80.20;101388.19;4935486;29;20056;-78
2024/01/12 09:28:25;;;;;;;121.88;23.08;;;;;;;3.52;80.36;101387.31;4952625;29;20054;-78
2024/01/12 09:31:10;;;;;;;161.40;24.52;;;;;;;3.49;79.57;101383.00;4952234;29;20134;-80
2024/01/12 09:33:36;;;;;;;150.35;23.00;;;;;;;3.54;79.83;101377.75;4936912;29;20055;-77
2024/01/12 09:36:03;;;;;;;279.08;31.63;;;;;;;3.53;79.92;101368.22;4956133;29;20799;-78
2024/01/12 09:38:30;;;;;;;274.02;29.13;;;;;;;3.54;79.63;101366.50;4956045;29;20047;-78
2024/01/12 09:40:59;;;;;;;136.38;21.52;;;;;;;3.51;80.02;101376.03;4938758;29;20737;-78
2024/01/12 09:43:29;;;;;;;144.98;23.83;;;;;;;3.49;79.76;101385.59;4955985;29;20043;-78
2024/01/12 09:46:00;;;;;;;141.77;24.02;;;;;;;3.47;79.44;101387.31;4956016;29;20485;-77
2024/01/12 09:48:27;;;;;;;124.68;25.17;;;;;;;3.48;79.83;101381.22;4938653;29;20046;-77
2024/01/12 09:50:57;;;;;;;113.93;24.52;;;;;;;3.48;79.92;101368.22;4955962;29;20119;-78
2024/01/12 09:53:24;;;;;;;119.55;24.52;;;;;;;3.49;80.06;101363.88;4956068;29;20091;-77
2024/01/12 09:55:52;;;;;;;164.77;26.00;;;;;;;3.47;79.88;101361.28;4956022;29;20103;-78
2024/01/12 09:58:36;;;;;;;131.88;22.95;;;;;;;3.48;79.97;101363.00;4955852;29;20608;-78
2024/01/12 10:01:05;;;;;;;103.75;22.55;;;;;;;3.48;80.56;101363.00;4955472;29;20066;-78
2024/01/12 10:03:33;;;;;;;87.57;20.52;;;;;;;3.49;80.55;101359.56;4955896;29;20047;-77
2024/01/12 10:06:00;;;;;;;66.90;21.00;;;;;;;3.51;80.99;101363.00;4955718;29;20142;-77
2024/01/12 10:08:37;;;;;;;64.00;19.17;;;;;;;3.51;80.15;101362.13;4955818;29;20103;-78
2024/01/12 10:11:04;;;;;;;68.45;19.90;;;;;;;3.57;80.66;101363.88;4938336;29;20060;-79
2024/01/12 10:13:31;;;;;;;72.18;19.08;;;;;;;3.59;80.48;101372.56;4955368;29;20480;-77
2024/01/12 10:15:58;;;;;;;66.93;17.58;;;;;;;3.60;80.57;101369.06;4955740;28;20201;-77
2024/01/12 10:18:24;;;;;;;58.17;16.17;;;;;;;3.60;80.29;101361.25;4955545;29;20047;-78
2024/01/12 10:20:51;;;;;;;40.72;14.63;;;;;;;3.59;79.84;101359.53;4938055;29;20134;-78
2024/01/12 10:23:21;;;;;;;63.80;15.63;;;;;;;3.55;79.92;101355.22;4938322;29;20064;-77
2024/01/12 10:25:59;;;;;;;74.40;15.98;;;;;;;3.51;79.34;101355.19;4955312;29;20059;-77
2024/01/12 10:28:30;;;;;;;97.32;17.40;;;;;;;3.51;79.77;101360.41;4955443;28;20063;-79
2024/01/12 10:30:56;;;;;;;121.15;17.52;;;;;;;3.50;80.07;101366.50;4955076;29;20090;-78
2024/01/12 10:33:23;;;;;;;127.82;19.25;;;;;;;3.50;80.01;101365.63;4938130;29;20051;-79
2024/01/12 10:35:59;;;;;;;144.93;18.48;;;;;;;3.47;79.46;101358.69;4955342;29;20051;-78
2024/01/12 10:38:28;;;;;;;205.55;20.80;;;;;;;3.46;79.52;101359.56;4955490;29;20390;-78
2024/01/12 10:40:58;;;;;;;128.20;17.55;;;;;;;3.43;79.60;101359.56;4954954;29;20059;-77
2024/01/12 10:43:27;;;;;;;125.72;17.58;;;;;;;3.41;79.76;101361.31;4954973;28;20083;-77
2024/01/12 10:45:57;;;;;;;107.30;18.00;;;;;;;3.38;80.01;101363.91;4955159;28;20134;-77
2024/01/12 10:48:28;;;;;;;88.65;16.85;;;;;;;3.39;79.95;101363.03;4955260;29;20534;-80
2024/01/12 10:51:00;;;;;;;107.63;17.00;;;;;;;3.37;79.86;101356.97;4954632;29;20118;-78
2024/01/12 10:53:36;;;;;;;108.80;17.23;;;;;;;3.36;80.09;101358.69;4954988;29;20077;-80
2024/01/12 10:56:05;;;;;;;52.28;14.68;;;;;;;3.37;80.07;101355.22;4954965;29;20126;-78
2024/01/12 10:58:31;;;;;;;109.38;17.10;;;;;;;3.37;80.31;101344.81;4955022;29;20139;-78
2024/01/12 11:00:58;;;;;;;71.03;14.63;;;;;;;3.38;80.28;101350.88;4954362;29;20095;-77
2024/01/12 11:03:26;;;;;;;101.65;15.43;;;;;;;3.36;80.29;101347.41;4936938;29;20420;-79
2024/01/12 11:05:55;;;;;;;116.85;17.02;;;;;;;3.35;79.98;101345.69;4937647;29;20075;-77
2024/01/12 11:08:23;;;;;;;100.88;17.45;;;;;;;3.36;80.59;101350.00;4937192;29;20138;-77
2024/01/12 11:10:52;;;;;;;81.10;15.45;;;;;;;3.36;80.39;101360.41;4953998;29;20465;-78
2024/01/12 11:13:20;;;;;;;110.80;17.05;;;;;;;3.35;80.62;101359.56;4954113;29;20117;-77
2024/01/12 11:15:50;;;;;;;67.22;15.65;;;;;;;3.36;80.15;101352.59;4954333;29;20054;-77
2024/01/12 11:18:19;;;;;;;57.63;14.15;;;;;;;3.37;80.89;101356.97;4921710;29;20048;-80
2024/01/12 11:20:46;;;;;;;47.90;14.55;;;;;;;3.37;80.72;101349.16;4934695;29;20062;-78